createdAt,value
2023-01-21T00:00:24.634Z,99087.81
2023-01-21T00:00:57.121Z,99083.72
2023-01-21T00:01:29.006Z,99091.69
2023-01-21T00:02:00.947Z,99096.94
2023-01-21T00:02:32.968Z,99092.50
2023-01-21T00:03:04.944Z,99093.91
2023-01-21T00:03:36.993Z,99094.03
2023-01-21T00:04:08.961Z,99092.88
2023-01-21T00:04:40.874Z,99086.81
2023-01-21T00:05:12.763Z,99093.03
2023-01-21T00:05:44.612Z,99094.56
2023-01-21T00:06:17.207Z,99089.03
2023-01-21T00:06:49.413Z,99089.19
2023-01-21T00:07:21.294Z,99090.72
2023-01-21T00:07:53.311Z,99088.09
2023-01-21T00:08:26.144Z,99089.59
2023-01-21T00:08:59.441Z,99080.91
2023-01-21T00:09:31.347Z,99081.09
2023-01-21T00:10:03.533Z,99080.75
2023-01-21T00:10:35.465Z,99078.44
2023-01-21T00:11:09.522Z,99079.72
2023-01-21T00:11:41.715Z,99084.75
2023-01-21T00:12:14.707Z,99074.59
2023-01-21T00:12:46.657Z,99073.63
2023-01-21T00:13:18.543Z,99082.06
2023-01-21T00:13:50.523Z,99075.72
2023-01-21T00:14:22.409Z,99085.81
2023-01-21T00:14:54.340Z,99077.28
2023-01-21T00:15:26.233Z,99078.34
2023-01-21T00:15:58.147Z,99083.06
2023-01-21T00:16:30.173Z,99083.97
2023-01-21T00:17:02.417Z,99080.03
2023-01-21T00:17:36.157Z,99088.09
2023-01-21T00:18:08.512Z,99077.06
2023-01-21T00:18:41.177Z,99075.72
2023-01-21T00:19:13.055Z,99075.81
2023-01-21T00:19:44.930Z,99079.34
2023-01-21T00:20:17.301Z,99082.62
2023-01-21T00:20:49.260Z,99078.53
2023-01-21T00:21:21.089Z,99082.62
2023-01-21T00:21:53.058Z,99082.34
2023-01-21T00:22:25.225Z,99079.75
2023-01-21T00:22:57.159Z,99081.31
2023-01-21T00:23:29.195Z,99087.19
2023-01-21T00:24:01.155Z,99086.37
2023-01-21T00:24:33.040Z,99084.78
2023-01-21T00:25:05.389Z,99086.37
2023-01-21T00:25:37.531Z,99088.53
2023-01-21T00:26:12.074Z,99088.75
2023-01-21T00:26:44.141Z,99087.78
2023-01-21T00:27:16.025Z,99089.19
2023-01-21T00:27:48.297Z,99087.69
2023-01-21T00:28:20.266Z,99094.56
2023-01-21T00:28:52.157Z,99091.25
2023-01-21T00:29:24.158Z,99093.31
2023-01-21T00:29:56.203Z,99090.84
2023-01-21T00:30:28.216Z,99089.31
2023-01-21T00:31:01.806Z,99095.75
2023-01-21T00:31:34.144Z,99092.16
2023-01-21T00:32:06.119Z,99088.75
2023-01-21T00:32:38.093Z,99088.22
2023-01-21T00:33:10.300Z,99093.50
2023-01-21T00:33:42.260Z,99088.34
2023-01-21T00:34:14.314Z,99087.94
2023-01-21T00:34:46.230Z,99095.31
2023-01-21T00:35:18.136Z,99090.34
2023-01-21T00:36:10.787Z,99090.50
2023-01-21T00:36:42.680Z,99090.16
2023-01-21T00:37:14.539Z,99090.16
2023-01-21T00:37:46.434Z,99091.50
2023-01-21T00:38:18.612Z,99088.75
2023-01-21T00:38:50.928Z,99096.50
2023-01-21T00:39:22.808Z,99097.38
2023-01-21T00:39:54.692Z,99095.06
2023-01-21T00:40:26.609Z,99097.25
2023-01-21T00:41:11.571Z,99095.94
2023-01-21T00:41:43.435Z,99091.53
2023-01-21T00:42:15.370Z,99091.78
2023-01-21T00:42:47.493Z,99096.09
2023-01-21T00:43:19.706Z,99091.22
2023-01-21T00:43:51.966Z,99097.81
2023-01-21T00:44:23.874Z,99095.66
2023-01-21T00:44:57.437Z,99097.97
2023-01-21T00:45:29.321Z,99089.94
2023-01-21T00:46:01.375Z,99088.81
2023-01-21T00:46:33.460Z,99088.28
2023-01-21T00:47:06.134Z,99093.87
2023-01-21T00:47:38.028Z,99092.94
2023-01-21T00:48:09.910Z,99094.00
2023-01-21T00:48:42.221Z,99087.84
2023-01-21T00:49:14.109Z,99089.41
2023-01-21T00:49:45.954Z,99084.59
2023-01-21T00:50:18.056Z,99089.88
2023-01-21T00:50:51.608Z,99086.25
2023-01-21T00:51:23.776Z,99093.00
2023-01-21T00:51:55.620Z,99084.19
2023-01-21T00:52:27.620Z,99089.25
2023-01-21T00:52:59.477Z,99080.91
2023-01-21T00:53:34.015Z,99084.44
2023-01-21T00:54:06.253Z,99084.38
2023-01-21T00:54:38.156Z,99082.03
2023-01-21T00:55:10.035Z,99081.66
2023-01-21T00:55:41.948Z,99089.53
2023-01-21T00:56:14.464Z,99087.84
2023-01-21T00:56:46.382Z,99089.47
2023-01-21T00:57:18.381Z,99091.69
2023-01-21T00:57:50.499Z,99091.50
2023-01-21T00:58:22.657Z,99091.63
2023-01-21T00:58:54.728Z,99088.88
2023-01-21T00:59:30.571Z,99088.97
2023-01-21T01:00:02.509Z,99091.53
2023-01-21T01:00:34.440Z,99087.25
2023-01-21T01:01:12.753Z,99088.69
2023-01-21T01:01:44.872Z,99091.25
2023-01-21T01:02:16.917Z,99090.94
2023-01-21T01:02:48.858Z,99100.97
2023-01-21T01:03:20.803Z,99097.25
2023-01-21T01:03:52.778Z,99087.00
2023-01-21T01:04:24.727Z,99091.53
2023-01-21T01:04:56.932Z,99094.47
2023-01-21T01:05:28.899Z,99089.56
2023-01-21T01:06:16.339Z,99091.25
2023-01-21T01:06:48.587Z,99085.78
2023-01-21T01:07:20.502Z,99091.25
2023-01-21T01:07:52.373Z,99084.78
2023-01-21T01:08:24.270Z,99084.50
2023-01-21T01:08:58.520Z,99081.59
2023-01-21T01:09:30.760Z,99083.00
2023-01-21T01:10:02.940Z,99092.81
2023-01-21T01:10:37.432Z,99086.84
2023-01-21T01:11:09.457Z,99084.94
2023-01-21T01:11:41.374Z,99087.09
2023-01-21T01:12:13.253Z,99094.37
2023-01-21T01:12:45.211Z,99087.63
2023-01-21T01:13:17.078Z,99094.09
2023-01-21T01:13:48.999Z,99094.37
2023-01-21T01:14:21.214Z,99090.47
2023-01-21T01:14:53.070Z,99102.50
2023-01-21T01:15:25.287Z,99102.84
2023-01-21T01:15:58.722Z,99096.88
2023-01-21T01:16:30.843Z,99096.88
2023-01-21T01:17:03.009Z,99095.75
2023-01-21T01:17:35.655Z,99096.38
2023-01-21T01:18:07.534Z,99098.84
2023-01-21T01:18:39.451Z,99100.91
2023-01-21T01:19:12.548Z,99098.22
2023-01-21T01:19:44.420Z,99100.50
2023-01-21T01:20:16.818Z,99097.41
2023-01-21T01:20:49.147Z,99100.25
2023-01-21T01:21:21.874Z,99103.28
2023-01-21T01:21:53.739Z,99099.91
2023-01-21T01:22:25.849Z,99101.69
2023-01-21T01:22:57.709Z,99103.47
2023-01-21T01:23:30.163Z,99099.63
2023-01-21T01:24:03.286Z,99100.44
2023-01-21T01:24:35.226Z,99109.94
2023-01-21T01:25:07.357Z,99104.69
2023-01-21T01:25:39.248Z,99105.31
2023-01-21T01:26:14.175Z,99108.72
2023-01-21T01:26:46.081Z,99109.50
2023-01-21T01:27:18.004Z,99107.88
2023-01-21T01:27:49.866Z,99109.22
2023-01-21T01:28:22.057Z,99112.25
2023-01-21T01:28:53.991Z,99109.16
2023-01-21T01:29:25.893Z,99112.53
2023-01-21T01:29:57.881Z,99107.44
2023-01-21T01:30:29.811Z,99111.00
2023-01-21T01:31:05.922Z,99105.28
2023-01-21T01:31:38.359Z,99108.84
2023-01-21T01:32:10.665Z,99105.84
2023-01-21T01:32:42.565Z,99105.41
2023-01-21T01:33:14.469Z,99109.59
2023-01-21T01:33:47.110Z,99102.56
2023-01-21T01:34:19.062Z,99104.44
2023-01-21T01:34:51.021Z,99107.63
2023-01-21T01:35:23.566Z,99106.41
2023-01-21T01:35:55.753Z,99100.75
2023-01-21T01:36:27.695Z,99107.81
2023-01-21T01:36:59.861Z,99105.38
2023-01-21T01:37:31.719Z,99103.03
2023-01-21T01:38:08.018Z,99106.41
2023-01-21T01:38:40.239Z,99107.81
2023-01-21T01:39:12.279Z,99104.72
2023-01-21T01:39:44.231Z,99107.00
2023-01-21T01:40:16.378Z,99097.41
2023-01-21T01:40:50.729Z,99101.53
2023-01-21T01:41:27.285Z,99096.38
2023-01-21T01:41:59.546Z,99106.31
2023-01-21T01:42:31.527Z,99099.50
2023-01-21T01:43:03.368Z,99094.34
2023-01-21T01:43:59.572Z,99100.75
2023-01-21T01:44:55.894Z,99093.66
2023-01-21T01:45:27.799Z,99097.81
2023-01-21T01:45:59.720Z,99095.31
2023-01-21T01:46:34.207Z,99085.47
2023-01-21T01:47:06.599Z,99087.50
2023-01-21T01:47:44.524Z,99091.41
2023-01-21T01:48:30.023Z,99091.41
2023-01-21T01:49:17.824Z,99093.53
2023-01-21T01:49:49.857Z,99080.47
2023-01-21T01:50:22.311Z,99082.81
2023-01-21T01:50:58.240Z,99086.81
2023-01-21T01:51:40.311Z,99088.13
2023-01-21T01:52:13.984Z,99087.72
2023-01-21T01:52:46.757Z,99084.50
2023-01-21T01:53:20.446Z,99080.88
2023-01-21T01:53:53.465Z,99089.47
2023-01-21T01:54:48.452Z,99086.63
2023-01-21T01:55:20.844Z,99087.03
2023-01-21T01:55:56.896Z,99084.31
2023-01-21T01:56:30.228Z,99083.47
2023-01-21T01:57:10.413Z,99088.56
2023-01-21T01:57:50.038Z,99091.69
2023-01-21T01:58:23.051Z,99082.53
2023-01-21T01:58:55.182Z,99082.34
2023-01-21T01:59:28.999Z,99091.34
2023-01-21T02:00:05.073Z,99087.78
2023-01-21T02:00:42.078Z,99088.09
2023-01-21T02:01:14.348Z,99090.94
2023-01-21T02:01:46.485Z,99091.53
2023-01-21T02:02:20.073Z,99094.31
2023-01-21T02:03:12.470Z,99092.81
2023-01-21T02:03:54.435Z,99091.47
2023-01-21T02:04:31.954Z,99089.88
2023-01-21T02:05:07.244Z,99089.06
2023-01-21T02:05:41.040Z,99091.81
2023-01-21T02:06:14.548Z,99089.19
2023-01-21T02:06:47.975Z,99081.31
2023-01-21T02:07:22.608Z,99085.50
2023-01-21T02:07:54.497Z,99085.94
2023-01-21T02:08:27.397Z,99090.31
2023-01-21T02:08:59.620Z,99087.81
2023-01-21T02:09:31.528Z,99082.66
2023-01-21T02:10:03.626Z,99088.63
2023-01-21T02:10:36.078Z,99092.97
2023-01-21T02:11:13.457Z,99080.63
2023-01-21T02:11:45.536Z,99088.00
2023-01-21T02:12:18.181Z,99085.34
2023-01-21T02:12:50.128Z,99081.16
2023-01-21T02:13:30.945Z,99081.44
2023-01-21T02:14:04.019Z,99083.12
2023-01-21T02:14:42.855Z,99084.06
2023-01-21T02:15:14.876Z,99088.91
2023-01-21T02:16:17.977Z,99083.75
2023-01-21T02:17:18.425Z,99076.69
2023-01-21T02:18:19.209Z,99080.63
2023-01-21T02:19:38.645Z,99073.47
2023-01-21T02:20:29.123Z,99077.47
2023-01-21T02:21:22.542Z,99074.84
2023-01-21T02:22:12.241Z,99075.47
2023-01-21T02:23:12.304Z,99084.16
2023-01-21T02:24:07.009Z,99079.47
2023-01-21T02:24:41.591Z,99070.63
2023-01-21T02:25:36.489Z,99076.25
2023-01-21T02:26:41.743Z,99076.69
2023-01-21T02:27:40.666Z,99079.53
2023-01-21T02:28:32.238Z,99075.28
2023-01-21T02:29:28.297Z,99077.28
2023-01-21T02:30:21.994Z,99078.87
2023-01-21T02:31:28.500Z,99081.38
2023-01-21T02:32:02.920Z,99077.09
2023-01-21T02:33:00.425Z,99074.28
2023-01-21T02:33:44.772Z,99077.41
2023-01-21T02:34:22.552Z,99084.28
2023-01-21T02:35:29.716Z,99085.59
2023-01-21T02:36:22.269Z,99082.12
2023-01-21T02:37:11.145Z,99089.03
2023-01-21T02:38:08.503Z,99086.03
2023-01-21T02:38:49.000Z,99084.94
2023-01-21T02:39:35.889Z,99089.47
2023-01-21T02:40:13.655Z,99091.00
2023-01-21T02:41:03.782Z,99087.78
2023-01-21T02:41:44.834Z,99086.97
2023-01-21T02:42:16.534Z,99088.09
2023-01-21T02:43:01.826Z,99084.16
2023-01-21T02:43:48.462Z,99090.94
2023-01-21T02:44:35.676Z,99090.56
2023-01-21T02:45:19.641Z,99090.31
2023-01-21T02:46:12.950Z,99090.94
2023-01-21T02:46:49.134Z,99095.31
2023-01-21T02:47:37.313Z,99092.09
2023-01-21T02:48:22.225Z,99096.56
2023-01-21T02:49:00.353Z,99095.66
2023-01-21T02:49:38.375Z,99090.16
2023-01-21T02:50:12.987Z,99092.28
2023-01-21T02:50:49.056Z,99093.37
2023-01-21T02:51:23.891Z,99095.31
2023-01-21T02:51:56.098Z,99089.47
2023-01-21T02:52:28.172Z,99089.19
2023-01-21T02:53:01.881Z,99094.97
2023-01-21T02:53:35.977Z,99093.00
2023-01-21T02:54:39.541Z,99090.06
2023-01-21T02:55:16.642Z,99088.59
2023-01-21T02:55:48.512Z,99094.03
2023-01-21T02:56:27.897Z,99088.09
2023-01-21T02:57:00.053Z,99090.38
2023-01-21T02:57:52.380Z,99087.47
2023-01-21T02:58:32.487Z,99082.31
2023-01-21T02:59:05.988Z,99088.09
2023-01-21T02:59:40.286Z,99083.78
2023-01-21T03:00:18.436Z,99082.09
2023-01-21T03:01:18.544Z,99083.34
2023-01-21T03:02:05.674Z,99078.22
2023-01-21T03:02:47.023Z,99082.94
2023-01-21T03:03:28.092Z,99078.03
2023-01-21T03:04:19.643Z,99075.53
2023-01-21T03:05:45.219Z,99082.47
2023-01-21T03:06:19.985Z,99075.00
2023-01-21T03:07:18.010Z,99073.66
2023-01-21T03:08:04.238Z,99074.56
2023-01-21T03:08:51.795Z,99082.47
2023-01-21T03:09:29.481Z,99078.03
2023-01-21T03:10:14.831Z,99077.06
2023-01-21T03:11:02.266Z,99077.69
2023-01-21T03:11:34.387Z,99082.75
2023-01-21T03:12:15.133Z,99074.84
2023-01-21T03:13:03.902Z,99076.34
2023-01-21T03:14:07.970Z,99074.38
2023-01-21T03:15:03.525Z,99077.59
2023-01-21T03:15:57.453Z,99076.03
2023-01-21T03:17:07.220Z,99079.50
2023-01-21T03:18:04.416Z,99078.72
2023-01-21T03:18:42.540Z,99083.59
2023-01-21T03:19:18.007Z,99084.88
2023-01-21T03:20:02.373Z,99090.72
2023-01-21T03:20:50.544Z,99094.19
2023-01-21T03:21:30.343Z,99095.75
2023-01-21T03:22:06.243Z,99087.91
2023-01-21T03:22:39.513Z,99095.50
2023-01-21T03:23:20.375Z,99094.13
2023-01-21T03:23:54.177Z,99094.78
2023-01-21T03:24:26.537Z,99091.12
2023-01-21T03:24:58.912Z,99087.13
2023-01-21T03:25:33.754Z,99100.00
2023-01-21T03:26:08.863Z,99095.81
2023-01-21T03:26:45.734Z,99087.91
2023-01-21T03:27:22.292Z,99096.28
2023-01-21T03:27:55.575Z,99095.50
2023-01-21T03:28:32.019Z,99098.06
2023-01-21T03:29:09.705Z,99092.28
2023-01-21T03:29:42.368Z,99100.63
2023-01-21T03:30:17.768Z,99106.69
2023-01-21T03:30:55.627Z,99100.00
2023-01-21T03:31:30.672Z,99092.16
2023-01-21T03:32:06.456Z,99097.59
2023-01-21T03:32:40.174Z,99102.66
2023-01-21T03:33:14.284Z,99103.66
2023-01-21T03:33:48.813Z,99099.50
2023-01-21T03:34:25.876Z,99102.66
2023-01-21T03:35:00.660Z,99102.25
2023-01-21T03:35:37.692Z,99097.50
2023-01-21T03:36:20.239Z,99095.75
2023-01-21T03:36:57.716Z,99099.84
2023-01-21T03:37:29.610Z,99102.00
2023-01-21T03:38:24.164Z,99095.66
2023-01-21T03:38:57.873Z,99099.31
2023-01-21T03:39:45.828Z,99099.38
2023-01-21T03:40:30.749Z,99097.78
2023-01-21T03:41:24.937Z,99099.03
2023-01-21T03:41:57.018Z,99103.50
2023-01-21T03:42:29.553Z,99103.75
2023-01-21T03:43:02.726Z,99101.81
2023-01-21T03:43:35.297Z,99107.91
2023-01-21T03:44:07.664Z,99108.44
2023-01-21T03:44:41.027Z,99109.69
2023-01-21T03:45:13.838Z,99110.41
2023-01-21T03:46:00.719Z,99106.97
2023-01-21T03:46:48.738Z,99105.34
2023-01-21T03:47:37.841Z,99110.13
2023-01-21T03:48:20.425Z,99103.56
2023-01-21T03:48:59.597Z,99110.66
2023-01-21T03:49:41.167Z,99114.75
2023-01-21T03:50:19.996Z,99114.06
2023-01-21T03:50:59.305Z,99112.62
2023-01-21T03:51:39.285Z,99115.31
2023-01-21T03:52:13.796Z,99112.41
2023-01-21T03:52:46.708Z,99120.03
2023-01-21T03:53:18.720Z,99117.44
2023-01-21T03:53:58.234Z,99120.91
2023-01-21T03:54:30.876Z,99117.59
2023-01-21T03:55:02.808Z,99114.34
2023-01-21T03:55:36.619Z,99119.78
2023-01-21T03:56:08.515Z,99119.13
2023-01-21T03:56:40.446Z,99121.28
2023-01-21T03:57:12.348Z,99119.22
2023-01-21T03:57:44.338Z,99118.94
2023-01-21T03:58:16.235Z,99123.91
2023-01-21T03:58:48.181Z,99120.03
2023-01-21T03:59:20.041Z,99120.81
2023-01-21T03:59:52.757Z,99118.41
2023-01-21T04:00:24.674Z,99118.69
2023-01-21T04:00:57.635Z,99123.63
2023-01-21T04:01:29.584Z,99122.31
2023-01-21T04:02:01.451Z,99120.03
2023-01-21T04:02:33.420Z,99125.28
2023-01-21T04:03:05.340Z,99127.59
2023-01-21T04:03:37.208Z,99127.75
2023-01-21T04:04:10.093Z,99125.06
2023-01-21T04:04:41.976Z,99130.50
2023-01-21T04:05:14.300Z,99126.44
2023-01-21T04:05:46.166Z,99132.41
2023-01-21T04:06:22.927Z,99131.69
2023-01-21T04:06:54.772Z,99131.75
2023-01-21T04:07:26.847Z,99132.13
2023-01-21T04:07:58.700Z,99140.78
2023-01-21T04:08:30.635Z,99133.31
2023-01-21T04:09:06.734Z,99133.47
2023-01-21T04:09:38.640Z,99139.41
2023-01-21T04:10:11.271Z,99140.84
2023-01-21T04:10:43.192Z,99134.97
2023-01-21T04:11:15.935Z,99132.13
2023-01-21T04:11:48.108Z,99136.28
2023-01-21T04:12:19.979Z,99142.72
2023-01-21T04:12:51.866Z,99137.19
2023-01-21T04:13:23.697Z,99140.22
2023-01-21T04:13:55.539Z,99142.28
2023-01-21T04:14:27.718Z,99134.38
2023-01-21T04:14:59.563Z,99138.75
2023-01-21T04:15:31.411Z,99135.88
2023-01-21T04:16:03.469Z,99137.75
2023-01-21T04:16:35.549Z,99142.56
2023-01-21T04:17:07.808Z,99138.78
2023-01-21T04:17:39.789Z,99142.09
2023-01-21T04:18:11.646Z,99144.66
2023-01-21T04:18:43.468Z,99149.94
2023-01-21T04:19:15.364Z,99145.38
2023-01-21T04:19:47.225Z,99147.53
2023-01-21T04:20:19.778Z,99146.81
2023-01-21T04:20:51.669Z,99143.25
2023-01-21T04:21:23.541Z,99147.28
2023-01-21T04:21:55.853Z,99152.44
2023-01-21T04:22:28.107Z,99145.22
2023-01-21T04:23:00.102Z,99152.69
2023-01-21T04:23:32.028Z,99147.97
2023-01-21T04:24:04.604Z,99140.22
2023-01-21T04:24:36.512Z,99144.22
2023-01-21T04:25:08.561Z,99150.25
2023-01-21T04:25:40.480Z,99143.94
2023-01-21T04:26:12.402Z,99151.16
2023-01-21T04:26:44.363Z,99148.69
2023-01-21T04:27:16.195Z,99156.78
2023-01-21T04:27:48.449Z,99151.38
2023-01-21T04:28:20.393Z,99148.88
2023-01-21T04:28:52.240Z,99147.28
2023-01-21T04:29:24.057Z,99151.16
2023-01-21T04:29:55.916Z,99153.31
2023-01-21T04:30:27.738Z,99153.31
2023-01-21T04:31:00.030Z,99153.84
2023-01-21T04:31:31.994Z,99160.13
2023-01-21T04:32:04.367Z,99163.25
2023-01-21T04:32:37.468Z,99161.66
2023-01-21T04:33:09.744Z,99163.25
2023-01-21T04:33:41.928Z,99164.22
2023-01-21T04:34:13.816Z,99161.72
2023-01-21T04:34:45.711Z,99169.44
2023-01-21T04:35:17.563Z,99162.66
2023-01-21T04:35:49.408Z,99165.84
2023-01-21T04:36:21.300Z,99172.78
2023-01-21T04:36:53.169Z,99179.38
2023-01-21T04:37:25.127Z,99172.59
2023-01-21T04:37:57.171Z,99173.50
2023-01-21T04:38:29.394Z,99168.81
2023-01-21T04:39:01.488Z,99166.75
2023-01-21T04:39:33.433Z,99168.44
2023-01-21T04:40:05.873Z,99169.81
2023-01-21T04:40:37.742Z,99168.81
2023-01-21T04:41:09.627Z,99171.63
2023-01-21T04:41:41.458Z,99170.47
2023-01-21T04:42:13.463Z,99171.84
2023-01-21T04:42:45.323Z,99176.56
2023-01-21T04:43:17.452Z,99176.78
2023-01-21T04:43:49.641Z,99177.59
2023-01-21T04:44:21.564Z,99183.53
2023-01-21T04:44:53.421Z,99179.66
2023-01-21T04:45:25.399Z,99178.63
2023-01-21T04:45:57.304Z,99187.44
2023-01-21T04:46:29.185Z,99181.66
2023-01-21T04:47:01.085Z,99186.66
2023-01-21T04:47:32.972Z,99182.09
2023-01-21T04:48:04.880Z,99190.47
2023-01-21T04:48:37.033Z,99187.88
2023-01-21T04:49:09.250Z,99187.66
2023-01-21T04:49:41.145Z,99186.19
2023-01-21T04:50:14.271Z,99187.19
2023-01-21T04:50:46.761Z,99187.19
2023-01-21T04:51:18.731Z,99186.88
2023-01-21T04:51:50.660Z,99188.13
2023-01-21T04:52:22.595Z,99181.03
2023-01-21T04:52:54.517Z,99186.47
2023-01-21T04:53:26.425Z,99185.03
2023-01-21T04:53:58.301Z,99182.38
2023-01-21T04:54:30.781Z,99186.53
2023-01-21T04:55:02.717Z,99178.28
2023-01-21T04:55:34.606Z,99182.59
2023-01-21T04:56:06.667Z,99184.09
2023-01-21T04:56:38.582Z,99187.66
2023-01-21T04:57:11.877Z,99186.88
2023-01-21T04:57:43.799Z,99193.06
2023-01-21T04:58:15.642Z,99189.03
2023-01-21T04:58:47.527Z,99192.59
2023-01-21T04:59:19.408Z,99192.31
2023-01-21T04:59:51.637Z,99196.78
2023-01-21T05:00:23.837Z,99192.06
2023-01-21T05:00:56.112Z,99198.34
2023-01-21T05:01:28.043Z,99209.44
2023-01-21T05:01:59.955Z,99201.56
2023-01-21T05:02:32.699Z,99206.53
2023-01-21T05:03:04.625Z,99203.44
2023-01-21T05:03:36.503Z,99205.03
2023-01-21T05:04:08.370Z,99208.87
2023-01-21T05:04:40.238Z,99202.91
2023-01-21T05:05:12.417Z,99202.91
2023-01-21T05:05:44.316Z,99199.25
2023-01-21T05:06:16.244Z,99198.34
2023-01-21T05:06:48.078Z,99200.28
2023-01-21T05:07:21.690Z,99204.56
2023-01-21T05:07:54.181Z,99202.06
2023-01-21T05:08:26.058Z,99203.00
2023-01-21T05:08:58.003Z,99205.31
2023-01-21T05:09:29.910Z,99199.13
2023-01-21T05:10:01.831Z,99203.66
2023-01-21T05:10:34.028Z,99197.47
2023-01-21T05:11:08.909Z,99203.72
2023-01-21T05:11:40.843Z,99211.91
2023-01-21T05:12:12.745Z,99205.31
2023-01-21T05:12:44.685Z,99209.66
2023-01-21T05:13:16.566Z,99214.53
2023-01-21T05:13:48.461Z,99215.00
2023-01-21T05:14:20.338Z,99214.19
2023-01-21T05:14:57.793Z,99215.13
2023-01-21T05:15:30.008Z,99219.28
2023-01-21T05:16:08.438Z,99218.22
2023-01-21T05:16:40.429Z,99216.41
2023-01-21T05:17:12.349Z,99215.75
2023-01-21T05:17:44.262Z,99219.75
2023-01-21T05:18:16.083Z,99218.25
2023-01-21T05:18:48.772Z,99221.41
2023-01-21T05:19:20.609Z,99221.47
2023-01-21T05:19:52.486Z,99219.19
2023-01-21T05:20:24.502Z,99215.19
2023-01-21T05:20:57.026Z,99224.91
2023-01-21T05:21:29.187Z,99216.84
2023-01-21T05:22:01.211Z,99224.41
2023-01-21T05:22:33.114Z,99219.00
2023-01-21T05:23:05.075Z,99219.59
2023-01-21T05:23:36.988Z,99220.44
2023-01-21T05:24:09.015Z,99226.28
2023-01-21T05:24:40.886Z,99216.97
2023-01-21T05:25:12.770Z,99222.50
2023-01-21T05:25:44.696Z,99231.16
2023-01-21T05:26:16.888Z,99225.38
2023-01-21T05:26:49.784Z,99222.50
2023-01-21T05:27:21.845Z,99237.97
2023-01-21T05:27:54.918Z,99232.50
2023-01-21T05:28:26.844Z,99234.31
2023-01-21T05:28:58.802Z,99242.44
2023-01-21T05:29:30.700Z,99238.44
2023-01-21T05:30:02.804Z,99247.13
2023-01-21T05:30:34.771Z,99238.81
2023-01-21T05:31:06.751Z,99244.75
2023-01-21T05:31:38.826Z,99244.84
2023-01-21T05:32:11.140Z,99242.69
2023-01-21T05:32:43.024Z,99240.03
2023-01-21T05:33:15.217Z,99241.59
2023-01-21T05:33:47.274Z,99236.03
2023-01-21T05:34:19.134Z,99238.44
2023-01-21T05:34:51.091Z,99230.87
2023-01-21T05:35:24.374Z,99236.50
2023-01-21T05:35:56.292Z,99237.31
2023-01-21T05:36:28.342Z,99235.38
2023-01-21T05:37:00.230Z,99233.59
2023-01-21T05:37:32.443Z,99235.41
2023-01-21T05:38:04.345Z,99247.03
2023-01-21T05:38:36.212Z,99242.81
2023-01-21T05:39:08.122Z,99237.59
2023-01-21T05:39:40.147Z,99246.91
2023-01-21T05:40:12.717Z,99240.63
2023-01-21T05:40:44.848Z,99249.06
2023-01-21T05:41:17.581Z,99240.56
2023-01-21T05:41:49.565Z,99244.41
2023-01-21T05:42:21.493Z,99242.28
2023-01-21T05:42:53.717Z,99244.41
2023-01-21T05:43:26.214Z,99239.69
2023-01-21T05:43:58.038Z,99245.63
2023-01-21T05:44:29.895Z,99245.63
2023-01-21T05:45:01.984Z,99244.63
2023-01-21T05:45:33.930Z,99248.28
2023-01-21T05:46:06.092Z,99248.84
2023-01-21T05:46:37.952Z,99239.03
2023-01-21T05:47:09.840Z,99254.03
2023-01-21T05:47:41.856Z,99250.19
2023-01-21T05:48:14.317Z,99252.16
2023-01-21T05:48:46.214Z,99255.00
2023-01-21T05:49:18.116Z,99250.12
2023-01-21T05:49:49.995Z,99250.25
2023-01-21T05:50:21.884Z,99252.66
2023-01-21T05:50:53.752Z,99255.22
2023-01-21T05:51:25.626Z,99257.81
2023-01-21T05:51:57.536Z,99258.16
2023-01-21T05:52:29.388Z,99263.16
2023-01-21T05:53:01.284Z,99263.44
2023-01-21T05:53:33.457Z,99261.94
2023-01-21T05:54:05.393Z,99256.59
2023-01-21T05:54:37.252Z,99266.91
2023-01-21T05:55:09.273Z,99270.31
2023-01-21T05:55:41.305Z,99264.69
2023-01-21T05:56:13.143Z,99262.31
2023-01-21T05:56:45.099Z,99265.03
2023-01-21T05:57:16.965Z,99255.72
2023-01-21T05:57:48.831Z,99263.59
2023-01-21T05:58:22.106Z,99261.81
2023-01-21T05:58:54.283Z,99274.91
2023-01-21T05:59:26.164Z,99272.16
2023-01-21T05:59:58.708Z,99276.56
2023-01-21T06:00:31.102Z,99273.88
2023-01-21T06:01:03.623Z,99278.09
2023-01-21T06:01:36.347Z,99273.78
2023-01-21T06:02:08.263Z,99272.19
2023-01-21T06:02:40.184Z,99275.22
2023-01-21T06:03:12.088Z,99271.06
2023-01-21T06:03:43.987Z,99273.22
2023-01-21T06:04:15.844Z,99280.09
2023-01-21T06:04:47.766Z,99276.84
2023-01-21T06:05:19.704Z,99273.47
2023-01-21T06:05:51.748Z,99267.78
2023-01-21T06:06:23.953Z,99268.94
2023-01-21T06:06:56.034Z,99263.31
2023-01-21T06:07:27.934Z,99270.06
2023-01-21T06:07:59.861Z,99271.06
2023-01-21T06:08:31.937Z,99274.44
2023-01-21T06:09:04.072Z,99274.44
2023-01-21T06:09:36.022Z,99263.31
2023-01-21T06:10:08.645Z,99269.28
2023-01-21T06:10:40.839Z,99281.53
2023-01-21T06:11:12.704Z,99272.56
2023-01-21T06:11:44.881Z,99272.28
2023-01-21T06:12:16.751Z,99276.28
2023-01-21T06:12:51.998Z,99279.50
2023-01-21T06:13:23.966Z,99272.06
2023-01-21T06:13:55.838Z,99268.84
2023-01-21T06:14:27.705Z,99267.91
2023-01-21T06:15:00.490Z,99267.78
2023-01-21T06:15:35.459Z,99273.41
2023-01-21T06:16:07.723Z,99274.00
2023-01-21T06:16:39.569Z,99273.50
2023-01-21T06:17:11.822Z,99268.19
2023-01-21T06:17:45.218Z,99266.41
2023-01-21T06:18:18.272Z,99278.56
2023-01-21T06:18:50.141Z,99273.06
2023-01-21T06:19:22.003Z,99270.78
2023-01-21T06:19:54.173Z,99271.69
2023-01-21T06:20:26.376Z,99272.16
2023-01-21T06:21:01.516Z,99275.00
2023-01-21T06:21:33.381Z,99272.72
2023-01-21T06:22:05.257Z,99277.44
2023-01-21T06:22:37.491Z,99276.63
2023-01-21T06:23:09.432Z,99275.81
2023-01-21T06:23:41.727Z,99274.50
2023-01-21T06:24:13.623Z,99272.47
2023-01-21T06:24:45.708Z,99278.78
2023-01-21T06:25:17.624Z,99276.72
2023-01-21T06:25:49.480Z,99273.34
2023-01-21T06:26:21.427Z,99279.94
2023-01-21T06:26:53.502Z,99278.00
2023-01-21T06:27:25.488Z,99278.50
2023-01-21T06:27:58.541Z,99279.38
2023-01-21T06:28:30.675Z,99286.47
2023-01-21T06:29:02.606Z,99288.78
2023-01-21T06:29:34.456Z,99286.19
2023-01-21T06:30:07.786Z,99288.91
2023-01-21T06:30:39.885Z,99292.63
2023-01-21T06:31:11.807Z,99297.16
2023-01-21T06:31:43.824Z,99293.94
2023-01-21T06:32:15.888Z,99300.00
2023-01-21T06:32:47.828Z,99294.34
2023-01-21T06:33:20.082Z,99289.47
2023-01-21T06:33:52.350Z,99295.94
2023-01-21T06:34:24.340Z,99301.59
2023-01-21T06:34:56.231Z,99301.44
2023-01-21T06:35:28.092Z,99304.72
2023-01-21T06:36:00.013Z,99300.16
2023-01-21T06:36:32.969Z,99302.22
2023-01-21T06:37:04.985Z,99297.25
2023-01-21T06:37:36.905Z,99301.38
2023-01-21T06:38:08.890Z,99299.56
2023-01-21T06:38:41.167Z,99303.22
2023-01-21T06:39:13.036Z,99296.22
2023-01-21T06:39:44.935Z,99298.66
2023-01-21T06:40:17.215Z,99301.88
2023-01-21T06:40:49.348Z,99300.78
2023-01-21T06:41:21.223Z,99305.03
2023-01-21T06:41:55.224Z,99303.16
2023-01-21T06:42:27.435Z,99306.87
2023-01-21T06:42:59.608Z,99303.31
2023-01-21T06:43:31.578Z,99308.16
2023-01-21T06:44:04.752Z,99300.25
2023-01-21T06:44:36.639Z,99309.53
2023-01-21T06:45:09.106Z,99304.19
2023-01-21T06:45:41.486Z,99309.69
2023-01-21T06:46:13.872Z,99308.25
2023-01-21T06:46:52.144Z,99309.69
2023-01-21T06:47:31.509Z,99307.59
2023-01-21T06:48:03.659Z,99306.78
2023-01-21T06:48:35.603Z,99313.25
2023-01-21T06:49:07.978Z,99309.69